sensor_id;sensor_type;location;lat;lon;timestamp;temperature;humidity
23114;DHT22;11726;50.122;8.832;2023-04-19T00:02:09;11.30;99.90
23114;DHT22;11726;50.122;8.832;2023-04-19T00:04:36;11.30;99.90
23114;DHT22;11726;50.122;8.832;2023-04-19T00:07:03;11.20;99.90
23114;DHT22;11726;50.122;8.832;2023-04-19T00:09:30;11.30;99.90
23114;DHT22;11726;50.122;8.832;2023-04-19T00:11:57;11.20;99.90
23114;DHT22;11726;50.122;8.832;2023-04-19T00:14:24;11.20;99.90
23114;DHT22;11726;50.122;8.832;2023-04-19T00:16:51;11.20;99.90
23114;DHT22;11726;50.122;8.832;2023-04-19T00:19:21;11.20;99.90
23114;DHT22;11726;50.122;8.832;2023-04-19T00:21:51;11.20;99.90
23114;DHT22;11726;50.122;8.832;2023-04-19T00:24:18;11.20;99.90
23114;DHT22;11726;50.122;8.832;2023-04-19T00:26:44;11.20;99.90
23114;DHT22;11726;50.122;8.832;2023-04-19T00:29:11;11.20;99.90
23114;DHT22;11726;50.122;8.832;2023-04-19T00:31:37;11.10;99.90
23114;DHT22;11726;50.122;8.832;2023-04-19T00:34:05;11.10;99.90
23114;DHT22;11726;50.122;8.832;2023-04-19T00:36:32;11.10;99.90
23114;DHT22;11726;50.122;8.832;2023-04-19T00:38:59;11.10;99.90
23114;DHT22;11726;50.122;8.832;2023-04-19T00:41:25;11.10;99.90
23114;DHT22;11726;50.122;8.832;2023-04-19T00:43:52;11.20;99.90
23114;DHT22;11726;50.122;8.832;2023-04-19T00:46:19;11.10;99.90
23114;DHT22;11726;50.122;8.832;2023-04-19T00:48:47;11.10;99.90
23114;DHT22;11726;50.122;8.832;2023-04-19T00:51:15;11.10;99.90
23114;DHT22;11726;50.122;8.832;2023-04-19T00:53:42;11.10;99.90
23114;DHT22;11726;50.122;8.832;2023-04-19T00:56:09;11.10;99.90
23114;DHT22;11726;50.122;8.832;2023-04-19T00:58:37;11.10;99.90
23114;DHT22;11726;50.122;8.832;2023-04-19T01:01:05;11.10;99.90
23114;DHT22;11726;50.122;8.832;2023-04-19T01:03:32;11.00;99.90
23114;DHT22;11726;50.122;8.832;2023-04-19T01:06:00;11.00;99.90
23114;DHT22;11726;50.122;8.832;2023-04-19T01:08:27;11.10;99.90
23114;DHT22;11726;50.122;8.832;2023-04-19T01:10:54;11.00;99.90
23114;DHT22;11726;50.122;8.832;2023-04-19T01:13:20;11.00;99.90
23114;DHT22;11726;50.122;8.832;2023-04-19T01:15:47;11.00;99.90
23114;DHT22;11726;50.122;8.832;2023-04-19T01:18:14;11.00;99.90
23114;DHT22;11726;50.122;8.832;2023-04-19T01:20:41;11.00;99.90
23114;DHT22;11726;50.122;8.832;2023-04-19T01:23:08;11.00;99.90
23114;DHT22;11726;50.122;8.832;2023-04-19T01:25:37;11.00;99.90
23114;DHT22;11726;50.122;8.832;2023-04-19T01:28:04;11.00;99.90
23114;DHT22;11726;50.122;8.832;2023-04-19T01:30:31;11.00;99.90
23114;DHT22;11726;50.122;8.832;2023-04-19T01:32:58;11.00;99.90
23114;DHT22;11726;50.122;8.832;2023-04-19T01:35:25;11.00;99.90
23114;DHT22;11726;50.122;8.832;2023-04-19T01:37:52;11.00;99.90
23114;DHT22;11726;50.122;8.832;2023-04-19T01:40:24;11.00;99.90
23114;DHT22;11726;50.122;8.832;2023-04-19T01:42:51;11.00;99.90
23114;DHT22;11726;50.122;8.832;2023-04-19T01:45:19;10.90;99.90
23114;DHT22;11726;50.122;8.832;2023-04-19T01:47:46;10.90;99.90
23114;DHT22;11726;50.122;8.832;2023-04-19T01:50:12;10.90;99.90
23114;DHT22;11726;50.122;8.832;2023-04-19T01:52:39;10.90;99.90
23114;DHT22;11726;50.122;8.832;2023-04-19T01:55:06;10.90;99.90
23114;DHT22;11726;50.122;8.832;2023-04-19T01:57:34;10.90;99.90
23114;DHT22;11726;50.122;8.832;2023-04-19T02:00:01;10.90;99.90
23114;DHT22;11726;50.122;8.832;2023-04-19T02:02:27;10.80;99.90
23114;DHT22;11726;50.122;8.832;2023-04-19T02:04:54;10.80;99.90
23114;DHT22;11726;50.122;8.832;2023-04-19T02:07:21;10.80;99.90
23114;DHT22;11726;50.122;8.832;2023-04-19T02:09:48;10.80;99.90
23114;DHT22;11726;50.122;8.832;2023-04-19T02:12:15;10.90;99.90
23114;DHT22;11726;50.122;8.832;2023-04-19T02:14:43;10.90;99.90
23114;DHT22;11726;50.122;8.832;2023-04-19T02:17:09;10.90;99.90
23114;DHT22;11726;50.122;8.832;2023-04-19T02:19:37;10.90;99.90
23114;DHT22;11726;50.122;8.832;2023-04-19T02:22:05;10.90;99.90
23114;DHT22;11726;50.122;8.832;2023-04-19T02:24:32;10.90;99.90
23114;DHT22;11726;50.122;8.832;2023-04-19T02:26:58;10.90;99.90
23114;DHT22;11726;50.122;8.832;2023-04-19T02:29:25;10.90;99.90
23114;DHT22;11726;50.122;8.832;2023-04-19T02:31:52;10.80;99.90
23114;DHT22;11726;50.122;8.832;2023-04-19T02:34:18;10.80;99.90
23114;DHT22;11726;50.122;8.832;2023-04-19T02:36:45;10.80;99.90
23114;DHT22;11726;50.122;8.832;2023-04-19T02:39:12;10.80;99.90
23114;DHT22;11726;50.122;8.832;2023-04-19T02:41:40;10.80;99.90
23114;DHT22;11726;50.122;8.832;2023-04-19T02:44:06;10.80;99.90
23114;DHT22;11726;50.122;8.832;2023-04-19T02:46:33;10.70;99.90
23114;DHT22;11726;50.122;8.832;2023-04-19T02:49:01;10.70;99.90
23114;DHT22;11726;50.122;8.832;2023-04-19T02:51:27;10.70;99.90
23114;DHT22;11726;50.122;8.832;2023-04-19T02:53:54;10.70;99.90
23114;DHT22;11726;50.122;8.832;2023-04-19T02:56:21;10.70;99.90
23114;DHT22;11726;50.122;8.832;2023-04-19T02:58:48;10.60;99.90
23114;DHT22;11726;50.122;8.832;2023-04-19T03:01:15;10.60;99.90
23114;DHT22;11726;50.122;8.832;2023-04-19T03:03:41;10.60;99.90
23114;DHT22;11726;50.122;8.832;2023-04-19T03:06:08;10.70;99.90
23114;DHT22;11726;50.122;8.832;2023-04-19T03:08:35;10.60;99.90
23114;DHT22;11726;50.122;8.832;2023-04-19T03:11:05;10.60;99.90
23114;DHT22;11726;50.122;8.832;2023-04-19T03:13:31;10.60;99.90
23114;DHT22;11726;50.122;8.832;2023-04-19T03:15:59;10.60;99.90
23114;DHT22;11726;50.122;8.832;2023-04-19T03:18:26;10.60;99.90
23114;DHT22;11726;50.122;8.832;2023-04-19T03:20:52;10.60;99.90
23114;DHT22;11726;50.122;8.832;2023-04-19T03:23:20;10.50;99.90
23114;DHT22;11726;50.122;8.832;2023-04-19T03:25:49;10.60;99.90
23114;DHT22;11726;50.122;8.832;2023-04-19T03:28:16;10.60;99.90
23114;DHT22;11726;50.122;8.832;2023-04-19T03:30:44;10.60;99.90
23114;DHT22;11726;50.122;8.832;2023-04-19T03:33:11;10.60;99.90
23114;DHT22;11726;50.122;8.832;2023-04-19T03:35:38;10.60;99.90
23114;DHT22;11726;50.122;8.832;2023-04-19T03:38:04;10.70;99.90
23114;DHT22;11726;50.122;8.832;2023-04-19T03:40:36;10.70;99.90
23114;DHT22;11726;50.122;8.832;2023-04-19T03:43:03;10.70;99.90
23114;DHT22;11726;50.122;8.832;2023-04-19T03:45:30;10.70;99.90
23114;DHT22;11726;50.122;8.832;2023-04-19T03:47:56;10.70;99.90
23114;DHT22;11726;50.122;8.832;2023-04-19T03:50:25;10.70;99.90
23114;DHT22;11726;50.122;8.832;2023-04-19T03:52:52;10.70;99.90
23114;DHT22;11726;50.122;8.832;2023-04-19T03:55:20;10.70;99.90
23114;DHT22;11726;50.122;8.832;2023-04-19T03:57:46;10.70;99.90
23114;DHT22;11726;50.122;8.832;2023-04-19T04:00:13;10.70;99.90
23114;DHT22;11726;50.122;8.832;2023-04-19T04:02:40;10.70;99.90
23114;DHT22;11726;50.122;8.832;2023-04-19T04:05:07;10.60;99.90
23114;DHT22;11726;50.122;8.832;2023-04-19T04:07:34;10.60;99.90
23114;DHT22;11726;50.122;8.832;2023-04-19T04:10:01;10.60;99.90
23114;DHT22;11726;50.122;8.832;2023-04-19T04:12:28;10.60;99.90
23114;DHT22;11726;50.122;8.832;2023-04-19T04:14:54;10.60;99.90
23114;DHT22;11726;50.122;8.832;2023-04-19T04:17:21;10.60;99.90
23114;DHT22;11726;50.122;8.832;2023-04-19T04:19:49;10.60;99.90
23114;DHT22;11726;50.122;8.832;2023-04-19T04:22:17;10.60;99.90
23114;DHT22;11726;50.122;8.832;2023-04-19T04:24:44;10.60;99.90
23114;DHT22;11726;50.122;8.832;2023-04-19T04:27:10;10.60;99.90
23114;DHT22;11726;50.122;8.832;2023-04-19T04:29:37;10.70;99.90
23114;DHT22;11726;50.122;8.832;2023-04-19T04:32:06;10.60;99.90
23114;DHT22;11726;50.122;8.832;2023-04-19T04:34:37;10.60;99.90
23114;DHT22;11726;50.122;8.832;2023-04-19T04:37:04;10.60;99.90
23114;DHT22;11726;50.122;8.832;2023-04-19T04:39:40;10.60;99.90
23114;DHT22;11726;50.122;8.832;2023-04-19T04:42:07;10.60;99.90
23114;DHT22;11726;50.122;8.832;2023-04-19T04:44:41;10.70;99.90
23114;DHT22;11726;50.122;8.832;2023-04-19T04:47:24;10.60;99.90
23114;DHT22;11726;50.122;8.832;2023-04-19T04:49:55;10.60;99.90
23114;DHT22;11726;50.122;8.832;2023-04-19T04:52:22;10.60;99.90
23114;DHT22;11726;50.122;8.832;2023-04-19T04:54:49;10.70;99.90
23114;DHT22;11726;50.122;8.832;2023-04-19T04:57:16;10.70;99.90
23114;DHT22;11726;50.122;8.832;2023-04-19T04:59:42;10.60;99.90
23114;DHT22;11726;50.122;8.832;2023-04-19T05:02:09;10.70;99.90
23114;DHT22;11726;50.122;8.832;2023-04-19T05:04:36;10.70;99.90
23114;DHT22;11726;50.122;8.832;2023-04-19T05:07:03;10.70;99.90
23114;DHT22;11726;50.122;8.832;2023-04-19T05:09:30;10.70;99.90
23114;DHT22;11726;50.122;8.832;2023-04-19T05:11:56;10.70;99.90
23114;DHT22;11726;50.122;8.832;2023-04-19T05:14:23;10.70;99.90
23114;DHT22;11726;50.122;8.832;2023-04-19T05:16:50;10.70;99.90
23114;DHT22;11726;50.122;8.832;2023-04-19T05:19:16;10.70;99.90
23114;DHT22;11726;50.122;8.832;2023-04-19T05:21:43;10.80;99.90
23114;DHT22;11726;50.122;8.832;2023-04-19T05:24:10;10.80;99.90
23114;DHT22;11726;50.122;8.832;2023-04-19T05:26:36;10.80;99.90
23114;DHT22;11726;50.122;8.832;2023-04-19T05:29:03;10.80;99.90
23114;DHT22;11726;50.122;8.832;2023-04-19T05:31:30;10.90;99.90
23114;DHT22;11726;50.122;8.832;2023-04-19T05:33:57;10.90;99.90
23114;DHT22;11726;50.122;8.832;2023-04-19T05:36:24;10.90;99.90
23114;DHT22;11726;50.122;8.832;2023-04-19T05:38:50;11.00;99.90
23114;DHT22;11726;50.122;8.832;2023-04-19T05:41:17;10.90;99.90
23114;DHT22;11726;50.122;8.832;2023-04-19T05:43:44;10.90;99.90
23114;DHT22;11726;50.122;8.832;2023-04-19T05:46:10;11.00;99.90
23114;DHT22;11726;50.122;8.832;2023-04-19T05:48:37;10.90;99.90
23114;DHT22;11726;50.122;8.832;2023-04-19T05:51:04;11.00;99.90
23114;DHT22;11726;50.122;8.832;2023-04-19T05:53:31;11.00;99.90
23114;DHT22;11726;50.122;8.832;2023-04-19T05:55:57;11.10;99.90
23114;DHT22;11726;50.122;8.832;2023-04-19T05:58:24;11.10;99.90
23114;DHT22;11726;50.122;8.832;2023-04-19T06:00:51;11.10;99.90
23114;DHT22;11726;50.122;8.832;2023-04-19T06:03:18;11.20;99.90
23114;DHT22;11726;50.122;8.832;2023-04-19T06:05:45;11.20;99.90
23114;DHT22;11726;50.122;8.832;2023-04-19T06:08:12;11.20;99.90
23114;DHT22;11726;50.122;8.832;2023-04-19T06:10:41;11.20;99.90
23114;DHT22;11726;50.122;8.832;2023-04-19T06:13:22;11.30;99.90
23114;DHT22;11726;50.122;8.832;2023-04-19T06:15:49;11.30;99.90
23114;DHT22;11726;50.122;8.832;2023-04-19T06:18:15;11.30;99.90
23114;DHT22;11726;50.122;8.832;2023-04-19T06:20:45;11.20;99.90
23114;DHT22;11726;50.122;8.832;2023-04-19T06:23:12;11.20;99.90
23114;DHT22;11726;50.122;8.832;2023-04-19T06:25:40;11.20;99.90
23114;DHT22;11726;50.122;8.832;2023-04-19T06:28:06;11.30;99.90
23114;DHT22;11726;50.122;8.832;2023-04-19T06:30:33;11.30;99.90
23114;DHT22;11726;50.122;8.832;2023-04-19T06:33:00;11.20;99.90
23114;DHT22;11726;50.122;8.832;2023-04-19T06:35:27;11.20;99.90
23114;DHT22;11726;50.122;8.832;2023-04-19T06:37:53;11.20;99.90
23114;DHT22;11726;50.122;8.832;2023-04-19T06:40:20;11.30;99.90
23114;DHT22;11726;50.122;8.832;2023-04-19T06:42:47;11.30;99.90
23114;DHT22;11726;50.122;8.832;2023-04-19T06:45:14;11.30;99.90
23114;DHT22;11726;50.122;8.832;2023-04-19T06:47:41;11.30;99.90
23114;DHT22;11726;50.122;8.832;2023-04-19T06:50:08;11.30;99.90
23114;DHT22;11726;50.122;8.832;2023-04-19T06:52:37;11.30;99.90
23114;DHT22;11726;50.122;8.832;2023-04-19T06:55:05;11.30;99.90
23114;DHT22;11726;50.122;8.832;2023-04-19T06:57:32;11.30;99.90
23114;DHT22;11726;50.122;8.832;2023-04-19T06:59:59;11.30;99.90
23114;DHT22;11726;50.122;8.832;2023-04-19T07:02:26;11.30;99.90
23114;DHT22;11726;50.122;8.832;2023-04-19T07:04:53;11.30;99.90
23114;DHT22;11726;50.122;8.832;2023-04-19T07:07:19;11.30;99.90
23114;DHT22;11726;50.122;8.832;2023-04-19T07:09:46;11.40;99.90
23114;DHT22;11726;50.122;8.832;2023-04-19T07:12:13;11.40;99.90
23114;DHT22;11726;50.122;8.832;2023-04-19T07:14:39;11.30;99.90
23114;DHT22;11726;50.122;8.832;2023-04-19T07:17:06;11.40;99.90
23114;DHT22;11726;50.122;8.832;2023-04-19T07:19:33;11.30;99.90
23114;DHT22;11726;50.122;8.832;2023-04-19T07:22:01;11.40;99.90
23114;DHT22;11726;50.122;8.832;2023-04-19T07:24:28;11.40;99.90
23114;DHT22;11726;50.122;8.832;2023-04-19T07:26:55;11.50;99.90
23114;DHT22;11726;50.122;8.832;2023-04-19T07:29:22;11.50;99.90
23114;DHT22;11726;50.122;8.832;2023-04-19T07:31:49;11.50;99.90
23114;DHT22;11726;50.122;8.832;2023-04-19T07:34:16;11.60;99.90
23114;DHT22;11726;50.122;8.832;2023-04-19T07:36:43;11.70;99.90
23114;DHT22;11726;50.122;8.832;2023-04-19T07:39:10;11.70;99.90
23114;DHT22;11726;50.122;8.832;2023-04-19T07:41:37;11.80;99.90
23114;DHT22;11726;50.122;8.832;2023-04-19T07:44:03;11.90;99.90
23114;DHT22;11726;50.122;8.832;2023-04-19T07:46:30;12.00;99.90
23114;DHT22;11726;50.122;8.832;2023-04-19T07:49:14;12.00;99.90
23114;DHT22;11726;50.122;8.832;2023-04-19T07:51:41;12.10;99.90
23114;DHT22;11726;50.122;8.832;2023-04-19T07:54:08;12.10;99.90
23114;DHT22;11726;50.122;8.832;2023-04-19T07:56:35;12.30;99.90
23114;DHT22;11726;50.122;8.832;2023-04-19T07:59:05;12.30;99.90
23114;DHT22;11726;50.122;8.832;2023-04-19T08:01:35;12.20;99.90
23114;DHT22;11726;50.122;8.832;2023-04-19T08:04:02;12.30;99.90
23114;DHT22;11726;50.122;8.832;2023-04-19T08:06:30;12.50;99.90
23114;DHT22;11726;50.122;8.832;2023-04-19T08:08:57;12.70;99.90
23114;DHT22;11726;50.122;8.832;2023-04-19T08:11:24;12.80;99.90
23114;DHT22;11726;50.122;8.832;2023-04-19T08:13:51;12.80;99.90
23114;DHT22;11726;50.122;8.832;2023-04-19T08:16:37;12.70;99.90
23114;DHT22;11726;50.122;8.832;2023-04-19T08:19:06;12.80;99.90
23114;DHT22;11726;50.122;8.832;2023-04-19T08:21:33;12.80;99.90
23114;DHT22;11726;50.122;8.832;2023-04-19T08:24:07;12.70;99.90
23114;DHT22;11726;50.122;8.832;2023-04-19T08:26:34;12.70;99.90
23114;DHT22;11726;50.122;8.832;2023-04-19T08:29:01;12.80;99.90
23114;DHT22;11726;50.122;8.832;2023-04-19T08:31:28;12.90;99.90
23114;DHT22;11726;50.122;8.832;2023-04-19T08:33:54;12.90;99.90
23114;DHT22;11726;50.122;8.832;2023-04-19T08:36:22;13.10;99.90
23114;DHT22;11726;50.122;8.832;2023-04-19T08:39:05;13.10;99.90
23114;DHT22;11726;50.122;8.832;2023-04-19T08:41:47;13.20;99.90
23114;DHT22;11726;50.122;8.832;2023-04-19T08:44:31;13.40;99.90
23114;DHT22;11726;50.122;8.832;2023-04-19T08:47:03;13.40;99.90
23114;DHT22;11726;50.122;8.832;2023-04-19T08:49:33;13.60;99.90
23114;DHT22;11726;50.122;8.832;2023-04-19T08:52:01;13.70;99.90
23114;DHT22;11726;50.122;8.832;2023-04-19T08:54:31;13.70;99.90
23114;DHT22;11726;50.122;8.832;2023-04-19T08:56:58;13.90;99.90
23114;DHT22;11726;50.122;8.832;2023-04-19T08:59:25;13.90;99.90
23114;DHT22;11726;50.122;8.832;2023-04-19T09:01:53;14.10;99.90
23114;DHT22;11726;50.122;8.832;2023-04-19T09:04:21;14.00;99.90
23114;DHT22;11726;50.122;8.832;2023-04-19T09:07:03;14.20;99.90
23114;DHT22;11726;50.122;8.832;2023-04-19T09:09:29;14.60;99.90
23114;DHT22;11726;50.122;8.832;2023-04-19T09:12:33;14.70;99.90
23114;DHT22;11726;50.122;8.832;2023-04-19T09:15:01;14.50;99.90
23114;DHT22;11726;50.122;8.832;2023-04-19T09:17:30;14.50;99.90
23114;DHT22;11726;50.122;8.832;2023-04-19T09:19:58;14.50;99.90
23114;DHT22;11726;50.122;8.832;2023-04-19T09:22:25;14.40;99.90
23114;DHT22;11726;50.122;8.832;2023-04-19T09:24:52;14.20;99.90
23114;DHT22;11726;50.122;8.832;2023-04-19T09:27:39;14.10;99.90
23114;DHT22;11726;50.122;8.832;2023-04-19T09:30:06;14.20;99.90
23114;DHT22;11726;50.122;8.832;2023-04-19T09:32:47;14.60;99.90
23114;DHT22;11726;50.122;8.832;2023-04-19T09:35:15;14.30;99.90
23114;DHT22;11726;50.122;8.832;2023-04-19T09:37:42;14.50;99.90
23114;DHT22;11726;50.122;8.832;2023-04-19T09:40:22;14.50;99.60
23114;DHT22;11726;50.122;8.832;2023-04-19T09:42:49;14.40;99.90
23114;DHT22;11726;50.122;8.832;2023-04-19T09:45:18;14.10;99.90
23114;DHT22;11726;50.122;8.832;2023-04-19T09:48:04;14.30;99.90
23114;DHT22;11726;50.122;8.832;2023-04-19T09:50:33;14.10;99.90
23114;DHT22;11726;50.122;8.832;2023-04-19T09:53:21;14.00;98.90
23114;DHT22;11726;50.122;8.832;2023-04-19T09:55:49;14.20;99.80
23114;DHT22;11726;50.122;8.832;2023-04-19T09:58:27;13.90;99.80
23114;DHT22;11726;50.122;8.832;2023-04-19T10:01:03;13.90;99.90
23114;DHT22;11726;50.122;8.832;2023-04-19T10:03:34;14.10;99.70
23114;DHT22;11726;50.122;8.832;2023-04-19T10:06:02;13.90;98.90
23114;DHT22;11726;50.122;8.832;2023-04-19T10:08:40;14.00;99.20
23114;DHT22;11726;50.122;8.832;2023-04-19T10:11:10;13.80;99.80
23114;DHT22;11726;50.122;8.832;2023-04-19T10:13:38;13.90;99.30
23114;DHT22;11726;50.122;8.832;2023-04-19T10:16:05;14.00;99.90
23114;DHT22;11726;50.122;8.832;2023-04-19T10:18:47;14.00;99.10
23114;DHT22;11726;50.122;8.832;2023-04-19T10:21:15;14.30;98.90
23114;DHT22;11726;50.122;8.832;2023-04-19T10:23:42;14.10;98.00
23114;DHT22;11726;50.122;8.832;2023-04-19T10:26:08;14.10;98.70
23114;DHT22;11726;50.122;8.832;2023-04-19T10:28:40;14.10;97.50
23114;DHT22;11726;50.122;8.832;2023-04-19T10:31:11;14.20;98.20
23114;DHT22;11726;50.122;8.832;2023-04-19T10:33:39;14.10;97.20
23114;DHT22;11726;50.122;8.832;2023-04-19T10:36:10;14.10;97.20
23114;DHT22;11726;50.122;8.832;2023-04-19T10:38:40;14.10;97.10
23114;DHT22;11726;50.122;8.832;2023-04-19T10:41:09;14.20;97.10
23114;DHT22;11726;50.122;8.832;2023-04-19T10:48:57;14.80;96.30
23114;DHT22;11726;50.122;8.832;2023-04-19T10:54:05;14.90;93.90
23114;DHT22;11726;50.122;8.832;2023-04-19T11:04:07;14.90;91.00
23114;DHT22;11726;50.122;8.832;2023-04-19T11:06:35;14.80;91.10
23114;DHT22;11726;50.122;8.832;2023-04-19T11:09:03;14.80;90.60
23114;DHT22;11726;50.122;8.832;2023-04-19T11:11:33;15.00;91.50
23114;DHT22;11726;50.122;8.832;2023-04-19T11:14:02;15.30;87.90
23114;DHT22;11726;50.122;8.832;2023-04-19T11:16:30;15.10;87.70
23114;DHT22;11726;50.122;8.832;2023-04-19T11:19:23;15.20;83.30
23114;DHT22;11726;50.122;8.832;2023-04-19T11:21:49;15.70;85.20
23114;DHT22;11726;50.122;8.832;2023-04-19T11:24:16;15.60;82.50
23114;DHT22;11726;50.122;8.832;2023-04-19T11:26:47;15.40;80.00
23114;DHT22;11726;50.122;8.832;2023-04-19T11:29:14;15.40;77.90
23114;DHT22;11726;50.122;8.832;2023-04-19T11:31:45;15.70;77.90
23114;DHT22;11726;50.122;8.832;2023-04-19T11:34:12;15.70;74.00
23114;DHT22;11726;50.122;8.832;2023-04-19T11:36:51;15.80;70.70
23114;DHT22;11726;50.122;8.832;2023-04-19T11:39:18;16.00;70.20
23114;DHT22;11726;50.122;8.832;2023-04-19T11:41:46;16.00;61.50
23114;DHT22;11726;50.122;8.832;2023-04-19T11:44:17;15.90;62.20
23114;DHT22;11726;50.122;8.832;2023-04-19T11:49:28;16.00;59.50
23114;DHT22;11726;50.122;8.832;2023-04-19T11:51:57;15.90;56.60
23114;DHT22;11726;50.122;8.832;2023-04-19T11:54:24;15.90;58.10
23114;DHT22;11726;50.122;8.832;2023-04-19T11:57:07;15.80;55.60
23114;DHT22;11726;50.122;8.832;2023-04-19T11:59:35;16.00;56.10
23114;DHT22;11726;50.122;8.832;2023-04-19T12:02:09;16.20;57.80
23114;DHT22;11726;50.122;8.832;2023-04-19T12:04:37;16.40;52.70
23114;DHT22;11726;50.122;8.832;2023-04-19T12:07:05;16.40;50.90
23114;DHT22;11726;50.122;8.832;2023-04-19T12:09:34;16.30;51.70
23114;DHT22;11726;50.122;8.832;2023-04-19T12:12:02;16.50;54.00
23114;DHT22;11726;50.122;8.832;2023-04-19T12:14:29;16.70;54.10
23114;DHT22;11726;50.122;8.832;2023-04-19T12:19:36;16.50;52.70
23114;DHT22;11726;50.122;8.832;2023-04-19T12:22:15;16.20;52.20
23114;DHT22;11726;50.122;8.832;2023-04-19T12:24:42;16.70;51.20
23114;DHT22;11726;50.122;8.832;2023-04-19T12:27:09;16.90;50.90
23114;DHT22;11726;50.122;8.832;2023-04-19T12:29:37;16.80;51.30
23114;DHT22;11726;50.122;8.832;2023-04-19T12:32:04;17.10;50.90
23114;DHT22;11726;50.122;8.832;2023-04-19T12:34:31;16.90;50.60
23114;DHT22;11726;50.122;8.832;2023-04-19T12:36:58;16.80;51.00
23114;DHT22;11726;50.122;8.832;2023-04-19T12:39:27;16.70;49.30
23114;DHT22;11726;50.122;8.832;2023-04-19T12:41:55;17.20;51.60
23114;DHT22;11726;50.122;8.832;2023-04-19T12:44:22;17.20;49.80
23114;DHT22;11726;50.122;8.832;2023-04-19T12:46:49;17.10;50.30
23114;DHT22;11726;50.122;8.832;2023-04-19T12:49:17;17.50;50.60
23114;DHT22;11726;50.122;8.832;2023-04-19T12:51:44;17.10;48.40
23114;DHT22;11726;50.122;8.832;2023-04-19T12:54:14;16.80;48.10
23114;DHT22;11726;50.122;8.832;2023-04-19T12:56:40;17.00;48.00
23114;DHT22;11726;50.122;8.832;2023-04-19T12:59:07;17.20;48.40
23114;DHT22;11726;50.122;8.832;2023-04-19T13:01:34;17.40;49.20
23114;DHT22;11726;50.122;8.832;2023-04-19T13:04:01;17.60;48.60
23114;DHT22;11726;50.122;8.832;2023-04-19T13:06:28;17.60;46.40
23114;DHT22;11726;50.122;8.832;2023-04-19T13:08:55;17.70;46.80
23114;DHT22;11726;50.122;8.832;2023-04-19T13:11:27;17.50;47.00
23114;DHT22;11726;50.122;8.832;2023-04-19T13:13:53;17.70;46.60
23114;DHT22;11726;50.122;8.832;2023-04-19T13:16:20;17.40;46.10
23114;DHT22;11726;50.122;8.832;2023-04-19T13:18:48;17.70;45.90
23114;DHT22;11726;50.122;8.832;2023-04-19T13:21:14;17.80;44.20
23114;DHT22;11726;50.122;8.832;2023-04-19T13:23:42;17.80;43.60
23114;DHT22;11726;50.122;8.832;2023-04-19T13:26:10;17.70;43.20
23114;DHT22;11726;50.122;8.832;2023-04-19T13:28:36;17.70;45.20
23114;DHT22;11726;50.122;8.832;2023-04-19T13:31:04;17.70;45.60
23114;DHT22;11726;50.122;8.832;2023-04-19T13:33:31;17.90;44.90
23114;DHT22;11726;50.122;8.832;2023-04-19T13:35:59;17.40;43.50
23114;DHT22;11726;50.122;8.832;2023-04-19T13:38:26;18.00;44.20
23114;DHT22;11726;50.122;8.832;2023-04-19T13:40:52;18.30;44.10
23114;DHT22;11726;50.122;8.832;2023-04-19T13:43:20;18.50;43.50
23114;DHT22;11726;50.122;8.832;2023-04-19T13:45:47;18.20;43.40
23114;DHT22;11726;50.122;8.832;2023-04-19T13:48:13;18.20;44.40
23114;DHT22;11726;50.122;8.832;2023-04-19T13:50:40;18.50;44.20
23114;DHT22;11726;50.122;8.832;2023-04-19T13:53:07;18.20;43.80
23114;DHT22;11726;50.122;8.832;2023-04-19T13:55:34;18.60;43.10
23114;DHT22;11726;50.122;8.832;2023-04-19T13:58:00;18.40;40.70
23114;DHT22;11726;50.122;8.832;2023-04-19T14:00:27;18.50;41.80
23114;DHT22;11726;50.122;8.832;2023-04-19T14:02:54;18.50;42.00
23114;DHT22;11726;50.122;8.832;2023-04-19T14:05:22;18.40;42.30
23114;DHT22;11726;50.122;8.832;2023-04-19T14:07:51;18.70;43.30
23114;DHT22;11726;50.122;8.832;2023-04-19T14:10:18;18.60;43.30
23114;DHT22;11726;50.122;8.832;2023-04-19T14:12:46;18.60;43.00
23114;DHT22;11726;50.122;8.832;2023-04-19T14:15:12;18.90;43.40
23114;DHT22;11726;50.122;8.832;2023-04-19T14:17:39;18.50;43.50
23114;DHT22;11726;50.122;8.832;2023-04-19T14:20:06;18.50;43.70
23114;DHT22;11726;50.122;8.832;2023-04-19T14:22:33;18.50;43.00
23114;DHT22;11726;50.122;8.832;2023-04-19T14:25:01;18.90;42.80
23114;DHT22;11726;50.122;8.832;2023-04-19T14:27:29;19.50;42.70
23114;DHT22;11726;50.122;8.832;2023-04-19T14:29:56;19.20;42.20
23114;DHT22;11726;50.122;8.832;2023-04-19T14:32:26;18.90;42.80
23114;DHT22;11726;50.122;8.832;2023-04-19T14:34:53;18.70;43.40
23114;DHT22;11726;50.122;8.832;2023-04-19T14:37:22;18.90;44.50
23114;DHT22;11726;50.122;8.832;2023-04-19T14:39:49;19.00;44.70
23114;DHT22;11726;50.122;8.832;2023-04-19T14:42:16;19.00;43.90
23114;DHT22;11726;50.122;8.832;2023-04-19T14:44:46;19.10;43.30
23114;DHT22;11726;50.122;8.832;2023-04-19T14:47:13;19.40;43.20
23114;DHT22;11726;50.122;8.832;2023-04-19T14:49:40;19.50;42.30
23114;DHT22;11726;50.122;8.832;2023-04-19T14:52:07;19.20;43.10
23114;DHT22;11726;50.122;8.832;2023-04-19T14:54:34;18.10;43.70
23114;DHT22;11726;50.122;8.832;2023-04-19T14:57:01;17.60;45.80
23114;DHT22;11726;50.122;8.832;2023-04-19T14:59:27;17.80;45.80
23114;DHT22;11726;50.122;8.832;2023-04-19T15:01:55;18.10;45.70
23114;DHT22;11726;50.122;8.832;2023-04-19T15:04:22;18.60;44.60
23114;DHT22;11726;50.122;8.832;2023-04-19T15:06:49;19.00;44.90
23114;DHT22;11726;50.122;8.832;2023-04-19T15:09:16;19.00;43.90
23114;DHT22;11726;50.122;8.832;2023-04-19T15:11:43;19.00;44.40
23114;DHT22;11726;50.122;8.832;2023-04-19T15:14:10;18.70;44.30
23114;DHT22;11726;50.122;8.832;2023-04-19T15:16:37;17.80;45.50
23114;DHT22;11726;50.122;8.832;2023-04-19T15:19:04;17.40;46.20
23114;DHT22;11726;50.122;8.832;2023-04-19T15:21:32;18.10;46.70
23114;DHT22;11726;50.122;8.832;2023-04-19T15:23:59;18.40;45.10
23114;DHT22;11726;50.122;8.832;2023-04-19T15:26:27;18.80;44.90
23114;DHT22;11726;50.122;8.832;2023-04-19T15:28:54;18.00;45.20
23114;DHT22;11726;50.122;8.832;2023-04-19T15:31:21;17.50;46.80
23114;DHT22;11726;50.122;8.832;2023-04-19T15:33:48;17.40;46.90
23114;DHT22;11726;50.122;8.832;2023-04-19T15:36:15;17.10;47.60
23114;DHT22;11726;50.122;8.832;2023-04-19T15:38:41;16.50;48.70
23114;DHT22;11726;50.122;8.832;2023-04-19T15:41:10;15.90;49.50
23114;DHT22;11726;50.122;8.832;2023-04-19T15:43:36;15.90;50.10
23114;DHT22;11726;50.122;8.832;2023-04-19T15:46:04;15.70;50.50
23114;DHT22;11726;50.122;8.832;2023-04-19T15:48:31;15.90;50.60
23114;DHT22;11726;50.122;8.832;2023-04-19T15:50:57;16.70;50.10
23114;DHT22;11726;50.122;8.832;2023-04-19T15:53:24;17.20;48.50
23114;DHT22;11726;50.122;8.832;2023-04-19T15:55:51;17.30;47.90
23114;DHT22;11726;50.122;8.832;2023-04-19T15:58:20;17.60;48.60